createdAt,value
2023-02-02T00:04:24.374Z,10.90
2023-02-02T00:09:29.068Z,10.90
2023-02-02T00:14:31.359Z,10.80
2023-02-02T00:19:33.477Z,10.80
2023-02-02T00:24:35.635Z,10.80
2023-02-02T00:29:37.682Z,10.80
2023-02-02T00:34:39.726Z,10.70
2023-02-02T00:39:42.352Z,10.80
2023-02-02T00:45:03.165Z,10.80
2023-02-02T00:50:05.908Z,10.80
2023-02-02T00:55:08.783Z,10.80
2023-02-02T01:00:13.225Z,10.80
2023-02-02T01:05:15.338Z,10.80
2023-02-02T01:10:18.596Z,10.80
2023-02-02T01:15:20.627Z,10.80
2023-02-02T01:20:25.752Z,10.80
2023-02-02T01:25:27.864Z,10.90
2023-02-02T01:30:29.989Z,10.90
2023-02-02T01:35:32.356Z,10.90
2023-02-02T01:40:34.351Z,10.90
2023-02-02T01:45:36.352Z,10.90
2023-02-02T01:50:39.067Z,10.90
2023-02-02T01:55:41.418Z,11.00
2023-02-02T02:00:46.105Z,10.90
2023-02-02T02:05:51.737Z,10.90
2023-02-02T02:10:54.629Z,10.90
2023-02-02T02:16:19.797Z,10.90
2023-02-02T02:21:44.512Z,10.90
2023-02-02T02:26:58.649Z,10.90
2023-02-02T02:32:05.991Z,10.90
2023-02-02T02:37:26.895Z,10.90
2023-02-02T02:42:31.618Z,10.90
2023-02-02T02:47:35.959Z,10.90
2023-02-02T02:52:39.847Z,10.90
2023-02-02T02:57:49.936Z,11.00
2023-02-02T03:03:01.676Z,11.00
2023-02-02T03:08:17.451Z,10.90
2023-02-02T03:13:20.249Z,11.00
2023-02-02T03:18:23.689Z,11.00
2023-02-02T03:23:26.072Z,11.00
2023-02-02T03:28:29.355Z,10.90
2023-02-02T03:33:33.230Z,10.90
2023-02-02T03:38:35.290Z,10.80
2023-02-02T03:43:37.291Z,10.80
2023-02-02T03:48:39.261Z,10.80
2023-02-02T03:53:44.298Z,10.80
2023-02-02T03:58:47.234Z,10.90
2023-02-02T04:03:50.163Z,10.90
2023-02-02T04:08:52.195Z,10.90
2023-02-02T04:13:54.288Z,10.90
2023-02-02T04:18:56.226Z,10.90
2023-02-02T04:23:58.228Z,11.00
2023-02-02T04:29:00.248Z,11.00
2023-02-02T04:34:02.678Z,11.00
2023-02-02T04:39:04.866Z,11.10
2023-02-02T04:44:12.354Z,11.10
2023-02-02T04:49:14.481Z,11.00
2023-02-02T04:54:16.529Z,11.10
2023-02-02T04:59:18.543Z,11.10
2023-02-02T05:04:20.613Z,11.10
2023-02-02T05:09:22.722Z,11.30
2023-02-02T05:14:24.738Z,11.10
2023-02-02T05:19:26.765Z,11.10
2023-02-02T05:24:28.781Z,11.10
2023-02-02T05:29:30.934Z,11.10
2023-02-02T05:34:32.967Z,11.00
2023-02-02T05:39:35.014Z,11.00
2023-02-02T05:44:36.972Z,11.00
2023-02-02T05:49:38.968Z,11.00
2023-02-02T05:54:41.038Z,11.00
2023-02-02T05:59:43.101Z,11.10
2023-02-02T06:04:45.117Z,11.10
2023-02-02T06:09:47.179Z,11.10
2023-02-02T06:14:49.256Z,11.10
2023-02-02T06:19:51.215Z,11.00
2023-02-02T06:24:53.484Z,11.00
2023-02-02T06:29:55.511Z,11.00
2023-02-02T06:34:57.469Z,11.00
2023-02-02T06:39:59.828Z,10.90
2023-02-02T06:45:02.271Z,10.90
2023-02-02T06:50:04.405Z,10.90
2023-02-02T06:55:06.596Z,10.90
2023-02-02T07:00:08.872Z,11.00
2023-02-02T07:05:10.814Z,10.90
2023-02-02T07:11:13.923Z,11.00
2023-02-02T07:15:34.801Z,11.00
2023-02-02T07:20:36.820Z,10.90
2023-02-02T07:25:38.914Z,11.00
2023-02-02T07:30:41.070Z,11.00
2023-02-02T07:35:43.164Z,11.00
2023-02-02T07:40:45.462Z,11.00
2023-02-02T07:45:47.581Z,10.90
2023-02-02T07:50:49.591Z,10.90
2023-02-02T07:55:51.654Z,11.00
2023-02-02T08:00:53.766Z,11.00
2023-02-02T08:05:56.243Z,11.00
2023-02-02T08:10:58.199Z,11.10
2023-02-02T08:16:00.285Z,11.10
2023-02-02T08:21:02.947Z,11.10
2023-02-02T08:26:06.314Z,11.20
2023-02-02T08:31:10.060Z,11.10
2023-02-02T08:36:13.393Z,11.30
2023-02-02T08:41:17.045Z,11.40
2023-02-02T08:46:20.464Z,11.40
2023-02-02T08:51:22.793Z,11.40
2023-02-02T08:56:24.753Z,11.40
2023-02-02T09:01:28.280Z,11.50
2023-02-02T09:06:37.641Z,11.50
2023-02-02T09:11:40.180Z,11.60
2023-02-02T09:16:42.340Z,11.60
2023-02-02T09:21:44.383Z,11.60
2023-02-02T09:26:46.443Z,11.60
2023-02-02T09:31:48.668Z,11.60
2023-02-02T09:36:51.740Z,11.70
2023-02-02T09:41:55.762Z,11.70
2023-02-02T09:47:03.768Z,11.80
2023-02-02T09:52:11.595Z,11.80
2023-02-02T09:57:25.631Z,11.80
2023-02-02T10:02:32.409Z,11.90
2023-02-02T10:07:39.574Z,11.90
2023-02-02T10:12:56.375Z,11.80
2023-02-02T10:18:18.681Z,11.90
2023-02-02T10:23:23.419Z,11.90
2023-02-02T10:28:34.152Z,11.90
2023-02-02T10:33:38.208Z,11.80
2023-02-02T10:38:53.083Z,11.80
2023-02-02T10:44:13.473Z,11.90
2023-02-02T10:49:33.502Z,11.90
2023-02-02T10:54:55.336Z,11.80
2023-02-02T11:00:05.937Z,11.90
2023-02-02T11:05:32.198Z,12.00
2023-02-02T11:10:34.193Z,12.10
2023-02-02T11:15:37.624Z,11.90
2023-02-02T11:20:39.606Z,12.20
2023-02-02T11:25:42.781Z,12.20
2023-02-02T11:30:48.656Z,12.20
2023-02-02T11:35:55.699Z,12.20
2023-02-02T11:41:04.840Z,12.30
2023-02-02T11:46:14.462Z,12.30
2023-02-02T11:51:24.488Z,12.20
2023-02-02T11:56:26.983Z,12.20
2023-02-02T12:01:36.865Z,12.10
2023-02-02T12:06:39.061Z,12.10
2023-02-02T12:11:44.185Z,12.10
2023-02-02T12:17:12.470Z,12.40
2023-02-02T12:22:33.269Z,12.20
2023-02-02T12:27:53.899Z,12.30
2023-02-02T12:33:06.334Z,12.40
2023-02-02T12:38:14.104Z,12.40
2023-02-02T12:43:19.215Z,12.50
2023-02-02T12:48:21.197Z,12.50
2023-02-02T12:53:23.151Z,12.50
2023-02-02T12:58:37.434Z,12.60
2023-02-02T13:03:42.451Z,12.60
2023-02-02T13:08:52.065Z,12.70
2023-02-02T13:13:54.808Z,12.70
2023-02-02T13:18:59.978Z,12.80
2023-02-02T13:24:05.890Z,12.90
2023-02-02T13:29:10.726Z,12.90
2023-02-02T13:34:21.777Z,12.90
2023-02-02T13:39:33.669Z,12.90
2023-02-02T13:44:38.417Z,12.90
2023-02-02T13:49:47.094Z,12.90
2023-02-02T13:55:04.875Z,12.80
2023-02-02T14:00:12.991Z,12.80
2023-02-02T14:05:28.931Z,12.80
2023-02-02T14:10:33.828Z,12.80
2023-02-02T14:15:37.535Z,12.80
2023-02-02T14:20:44.371Z,12.80
2023-02-02T14:25:47.914Z,12.80
2023-02-02T14:31:09.935Z,12.90
2023-02-02T14:36:13.196Z,13.00
2023-02-02T14:41:44.185Z,13.00
2023-02-02T14:46:48.446Z,13.00
2023-02-02T14:51:52.238Z,13.10
2023-02-02T14:56:59.334Z,13.00
2023-02-02T15:02:13.684Z,13.00
2023-02-02T15:07:35.957Z,12.90
2023-02-02T15:12:43.557Z,12.80
2023-02-02T15:17:53.273Z,12.70
2023-02-02T15:23:19.064Z,12.70
2023-02-02T15:28:39.968Z,12.50
2023-02-02T15:33:43.857Z,12.50
2023-02-02T15:38:47.789Z,12.50
2023-02-02T15:43:53.280Z,12.50
2023-02-02T15:49:35.877Z,12.30
2023-02-02T15:54:38.682Z,12.30
2023-02-02T15:59:41.174Z,12.40
2023-02-02T16:04:44.721Z,12.40
2023-02-02T16:09:46.927Z,12.30
2023-02-02T16:14:50.350Z,12.30
2023-02-02T16:19:57.820Z,12.30
2023-02-02T16:25:02.264Z,12.40
2023-02-02T16:30:06.048Z,12.20
2023-02-02T16:35:28.090Z,12.20
2023-02-02T16:40:30.832Z,12.50
2023-02-02T16:45:42.901Z,12.20
2023-02-02T16:50:45.883Z,12.20
2023-02-02T16:55:51.270Z,12.20
2023-02-02T17:01:12.344Z,12.10
2023-02-02T17:06:16.608Z,12.10
2023-02-02T17:11:25.512Z,12.10
2023-02-02T17:16:27.604Z,12.00
2023-02-02T17:21:33.934Z,12.00
2023-02-02T17:26:36.372Z,12.00
2023-02-02T17:31:38.598Z,12.00
2023-02-02T17:36:41.214Z,11.90
2023-02-02T17:41:48.364Z,11.90
2023-02-02T17:46:50.401Z,11.90
2023-02-02T17:51:52.514Z,11.80
2023-02-02T17:56:54.642Z,11.80
2023-02-02T18:01:57.825Z,11.90
2023-02-02T18:12:02.241Z,11.60
2023-02-02T18:17:04.328Z,11.50
2023-02-02T18:22:06.590Z,11.50
2023-02-02T18:27:09.237Z,11.50
2023-02-02T18:32:11.365Z,11.50
2023-02-02T18:37:13.337Z,11.50
2023-02-02T18:42:15.426Z,11.40
2023-02-02T18:47:17.419Z,11.40
2023-02-02T18:52:19.873Z,11.40
2023-02-02T18:57:22.224Z,11.40
2023-02-02T19:02:25.562Z,11.40
2023-02-02T19:07:48.297Z,11.40
2023-02-02T19:13:05.879Z,11.40
2023-02-02T19:18:13.344Z,11.40
2023-02-02T19:23:15.387Z,11.40
2023-02-02T19:28:30.945Z,11.40
2023-02-02T19:33:40.497Z,11.40
2023-02-02T19:38:42.563Z,11.40
2023-02-02T19:43:47.613Z,11.60
2023-02-02T19:48:52.190Z,11.40
2023-02-02T19:53:58.962Z,11.40
2023-02-02T19:59:01.345Z,11.30
2023-02-02T20:04:06.338Z,11.40
2023-02-02T20:09:29.794Z,11.30
2023-02-02T20:14:33.237Z,11.40
2023-02-02T20:19:40.001Z,11.40
2023-02-02T20:24:42.049Z,11.40
2023-02-02T20:29:45.587Z,11.40
2023-02-02T20:34:49.248Z,11.40
2023-02-02T20:39:54.212Z,11.50
2023-02-02T20:44:57.995Z,11.50
2023-02-02T20:50:01.123Z,11.50
2023-02-02T20:55:06.953Z,11.50
2023-02-02T21:00:12.580Z,11.50
2023-02-02T21:05:14.978Z,11.60
2023-02-02T21:10:17.011Z,11.60
2023-02-02T21:15:19.244Z,11.50
2023-02-02T21:20:21.351Z,11.50
2023-02-02T21:25:23.405Z,11.60
2023-02-02T21:30:31.061Z,11.60
2023-02-02T21:35:34.222Z,11.60
2023-02-02T21:40:36.264Z,11.50
2023-02-02T21:45:38.420Z,11.50
2023-02-02T21:50:41.759Z,11.50
2023-02-02T21:55:44.723Z,11.60
2023-02-02T22:00:46.789Z,11.50
2023-02-02T22:05:48.845Z,11.50
2023-02-02T22:10:51.174Z,11.50
2023-02-02T22:15:53.917Z,11.50
2023-02-02T22:20:56.755Z,11.40
2023-02-02T22:25:59.130Z,11.50
2023-02-02T22:31:01.696Z,11.50
2023-02-02T22:36:04.152Z,11.40
2023-02-02T22:41:08.548Z,11.40
2023-02-02T22:46:10.750Z,11.40
2023-02-02T22:51:12.741Z,11.40
2023-02-02T22:56:15.478Z,11.40
2023-02-02T23:01:17.505Z,11.30
2023-02-02T23:06:19.632Z,11.60
2023-02-02T23:11:21.690Z,11.60
2023-02-02T23:16:23.732Z,11.40
2023-02-02T23:21:25.775Z,11.50
2023-02-02T23:26:27.765Z,11.40
2023-02-02T23:31:29.889Z,11.50
2023-02-02T23:36:32.042Z,11.60
2023-02-02T23:41:34.058Z,11.60
2023-02-02T23:51:38.809Z,11.70
2023-02-02T23:56:41.687Z,11.80
